Time;durP1;ratioP1;P1;durP2;ratioP2;P2;SDS_P1;SDS_P2;PMS_P1;PMS_P2;Temp;Humidity;BMP_temperature;BMP_pressure;BME280_temperature;BME280_humidity;BME280_pressure;Samples;Min_cycle;Max_cycle;Signal;HPM_P1;HPM_P2
2020/12/28 00:01:35;;;;;;;13.40;10.40;;;3.70;99.90;;;3.55;100.00;97515.25;6251410;23;20000;-88
2020/12/28 00:04:00;;;;;;;17.90;10.52;;;3.70;99.90;;;3.43;100.00;97522.53;6226444;23;20062;-88
2020/12/28 00:06:27;;;;;;;14.98;9.35;;;4.10;99.90;;;3.37;100.00;97521.63;6227375;23;20099;-87
2020/12/28 00:08:53;;;;;;;16.02;10.45;;;3.60;99.90;;;3.25;100.00;97518.94;6203650;23;20015;-88
2020/12/28 00:11:19;;;;;;;16.77;11.10;;;3.60;99.90;;;3.20;100.00;97520.69;6229930;23;20012;-88
2020/12/28 00:13:46;;;;;;;11.98;9.15;;;3.50;99.90;;;3.10;100.00;97526.66;6231801;23;20001;-88
2020/12/28 00:16:13;;;;;;;14.20;9.73;;;3.50;99.90;;;3.08;100.00;97520.69;6259797;22;20000;-88
2020/12/28 00:18:42;;;;;;;15.38;10.13;;;3.40;99.90;;;3.11;100.00;97522.94;6241003;23;20004;-87
2020/12/28 00:21:09;;;;;;;12.77;9.45;;;3.30;99.90;;;3.10;100.00;97528.53;6238232;23;20095;-88
2020/12/28 00:23:35;;;;;;;15.93;11.43;;;3.30;99.90;;;3.04;100.00;97526.78;6226820;22;20008;-87
2020/12/28 00:26:03;;;;;;;14.82;10.35;;;3.20;99.90;;;3.04;100.00;97516.88;6200603;23;20012;-89
2020/12/28 00:28:29;;;;;;;17.27;10.73;;;3.40;99.90;;;3.01;100.00;97517.31;6225865;23;20016;-88
2020/12/28 00:30:54;;;;;;;16.88;11.05;;;3.20;99.90;;;2.93;100.00;97520.38;6226628;23;20015;-88
2020/12/28 00:33:20;;;;;;;22.10;12.27;;;4.20;99.90;;;2.96;100.00;97511.81;6227236;22;20105;-88
2020/12/28 00:35:46;;;;;;;22.85;11.32;;;3.30;99.90;;;2.88;100.00;97504.13;6226404;23;20015;-87
2020/12/28 00:38:12;;;;;;;19.80;12.05;;;3.10;99.90;;;2.98;100.00;97512.41;6252134;23;20004;-88
2020/12/28 00:40:38;;;;;;;16.80;11.98;;;3.10;99.90;;;2.92;100.00;97508.00;6202110;23;20151;-87
2020/12/28 00:43:04;;;;;;;20.65;11.50;;;3.10;99.90;;;2.86;100.00;97509.72;6202128;23;20451;-88
2020/12/28 00:45:30;;;;;;;19.52;11.50;;;3.10;99.90;;;2.74;100.00;97505.41;6224457;23;20013;-86
2020/12/28 00:47:55;;;;;;;23.45;13.55;;;3.60;99.90;;;2.97;100.00;97507.28;6224703;23;20040;-87
2020/12/28 00:50:21;;;;;;;23.00;13.55;;;3.00;99.90;;;3.07;100.00;97521.75;6225645;23;20047;-89
2020/12/28 00:52:47;;;;;;;19.90;12.65;;;3.70;99.90;;;3.14;100.00;97506.34;6226834;23;20070;-88
2020/12/28 00:55:13;;;;;;;23.50;13.05;;;3.60;99.90;;;3.27;100.00;97508.75;6201423;23;20076;-89
2020/12/28 00:57:39;;;;;;;23.23;13.63;;;3.40;99.90;;;3.32;100.00;97512.63;6204228;23;20087;-89
2020/12/28 01:00:06;;;;;;;28.10;15.52;;;3.50;99.90;;;3.47;100.00;97511.06;6226312;23;20008;-89
2020/12/28 01:02:32;;;;;;;25.17;15.13;;;3.50;99.90;;;3.55;100.00;97512.56;6224835;23;20020;-88
2020/12/28 01:04:59;;;;;;;25.85;15.15;;;3.50;99.90;;;3.73;100.00;97512.41;6203193;23;20015;-89
2020/12/28 01:07:27;;;;;;;32.75;16.75;;;3.60;99.90;;;3.70;100.00;97518.28;6250569;23;20015;-88
2020/12/28 01:09:54;;;;;;;37.22;15.95;;;3.60;99.90;;;3.75;100.00;97507.59;6225235;23;20138;-89
2020/12/28 01:12:22;;;;;;;40.97;16.83;;;3.70;99.90;;;3.69;100.00;97508.56;6200685;23;20039;-88
2020/12/28 01:14:48;;;;;;;43.25;15.13;;;3.70;99.90;;;3.86;100.00;97503.22;6226666;23;20079;-88
2020/12/28 01:17:15;;;;;;;47.65;15.95;;;3.80;99.90;;;4.01;100.00;97511.59;6227171;23;20429;-89
2020/12/28 01:19:41;;;;;;;33.65;16.58;;;3.90;99.90;;;3.99;100.00;97509.16;6226204;23;20020;-87
2020/12/28 01:22:07;;;;;;;27.77;15.25;;;4.00;99.90;;;4.13;100.00;97515.06;6201509;23;20509;-88
2020/12/28 01:24:32;;;;;;;35.38;15.88;;;4.10;99.90;;;4.18;100.00;97511.63;6201919;23;20018;-88
2020/12/28 01:26:58;;;;;;;29.35;15.55;;;4.60;99.90;;;4.22;100.00;97515.47;6200703;23;20027;-88
2020/12/28 01:29:24;;;;;;;27.48;15.50;;;4.20;99.90;;;4.14;100.00;97518.56;6226581;23;20099;-89
2020/12/28 01:31:50;;;;;;;28.98;15.88;;;4.20;99.90;;;4.24;100.00;97519.56;6201642;23;20012;-89
2020/12/28 01:34:16;;;;;;;21.73;14.07;;;4.30;99.90;;;4.19;100.00;97518.66;6225113;23;20004;-88
2020/12/28 01:36:42;;;;;;;27.88;15.32;;;4.40;99.90;;;4.24;100.00;97522.25;6199525;23;20020;-88
2020/12/28 01:39:08;;;;;;;23.02;14.82;;;4.50;99.90;;;4.11;100.00;97519.03;6199144;23;20451;-87
2020/12/28 01:41:34;;;;;;;24.58;14.93;;;4.30;99.90;;;3.95;100.00;97524.13;6224463;23;20039;-88
2020/12/28 01:44:00;;;;;;;22.13;12.98;;;4.30;99.90;;;4.12;100.00;97526.06;6250218;23;20015;-88
2020/12/28 01:46:28;;;;;;;20.23;13.10;;;4.30;99.90;;;4.11;100.00;97527.94;6198620;23;20008;-87
2020/12/28 01:48:54;;;;;;;22.48;13.35;;;4.20;99.90;;;4.05;100.00;97523.53;6225958;23;20091;-88
2020/12/28 01:51:21;;;;;;;27.10;13.15;;;4.20;99.90;;;3.88;100.00;97533.41;6199339;23;20020;-87
2020/12/28 01:53:47;;;;;;;18.92;12.95;;;4.20;99.90;;;3.85;100.00;97529.31;6202447;23;20035;-87
2020/12/28 01:56:15;;;;;;;18.10;12.55;;;4.60;99.90;;;3.73;100.00;97541.97;6206631;23;20425;-87
2020/12/28 01:58:41;;;;;;;25.23;13.35;;;4.00;99.90;;;3.71;100.00;97536.03;6228207;23;20004;-87
2020/12/28 02:01:09;;;;;;;16.73;11.73;;;4.00;99.90;;;3.71;100.00;97538.75;6200691;23;20015;-87
2020/12/28 02:03:38;;;;;;;20.15;11.40;;;4.00;99.90;;;3.76;100.00;97540.69;6230801;23;20008;-90
2020/12/28 02:06:05;;;;;;;17.33;12.07;;;3.80;99.90;;;3.64;100.00;97543.41;6258693;23;20008;-92
2020/12/28 02:08:30;;;;;;;20.17;12.40;;;3.90;99.90;;;3.48;100.00;97538.78;6234086;23;20015;-91
2020/12/28 02:10:56;;;;;;;18.05;11.95;;;4.00;99.90;;;3.49;100.00;97533.19;6213858;23;20094;-92
2020/12/28 02:13:22;;;;;;;16.40;10.60;;;3.70;99.90;;;3.43;100.00;97531.41;6170579;23;20035;-91
2020/12/28 02:15:49;;;;;;;16.63;10.98;;;3.70;99.90;;;3.29;100.00;97536.22;6194966;23;20035;-92
2020/12/28 02:18:19;;;;;;;15.73;11.57;;;3.70;99.90;;;3.19;100.00;97538.69;6217498;23;20297;-92
2020/12/28 02:20:45;;;;;;;23.25;11.98;;;3.50;99.90;;;3.10;100.00;97537.41;6198675;23;20015;-92
2020/12/28 02:23:11;;;;;;;15.13;11.82;;;4.00;99.90;;;2.92;100.00;97534.84;6218619;23;20012;-92
2020/12/28 02:25:37;;;;;;;14.63;10.85;;;3.50;99.90;;;2.88;100.00;97541.72;6215214;23;20054;-92
2020/12/28 02:28:04;;;;;;;16.45;10.57;;;3.40;99.90;;;2.91;100.00;97544.78;6210115;23;20011;-93
2020/12/28 02:30:30;;;;;;;16.42;9.73;;;3.30;99.90;;;2.91;100.00;97544.78;6182036;23;20429;-91
2020/12/28 02:32:56;;;;;;;16.50;10.32;;;3.20;99.90;;;2.94;100.00;97543.47;6183268;23;20050;-92
2020/12/28 02:35:22;;;;;;;14.25;10.70;;;3.20;99.90;;;2.83;100.00;97549.66;6156218;23;20035;-91
2020/12/28 02:37:48;;;;;;;18.52;10.50;;;3.10;99.90;;;2.88;100.00;97547.91;6213751;23;19996;-93
2020/12/28 02:40:13;;;;;;;19.90;11.18;;;2.60;99.90;;;2.90;100.00;97547.69;6216967;23;20027;-92
2020/12/28 02:42:39;;;;;;;19.33;11.15;;;2.90;99.90;;;2.79;100.00;97545.81;6214566;23;20035;-91
2020/12/28 02:45:06;;;;;;;11.52;9.85;;;2.90;99.90;;;2.75;100.00;97544.63;6154607;23;20090;-92
2020/12/28 02:47:32;;;;;;;13.85;10.48;;;3.70;99.90;;;2.64;100.00;97548.13;6229202;23;20068;-92
2020/12/28 02:49:58;;;;;;;15.50;10.43;;;3.00;99.90;;;2.61;100.00;97541.34;6202907;23;20016;-93
2020/12/28 02:52:24;;;;;;;22.85;10.60;;;2.80;99.90;;;2.54;100.00;97544.13;6203394;23;20429;-93
2020/12/28 02:54:50;;;;;;;14.90;10.93;;;2.90;99.90;;;2.55;100.00;97544.94;6202311;23;20095;-93
2020/12/28 02:57:16;;;;;;;15.80;11.73;;;2.80;99.90;;;2.49;100.00;97535.94;6177964;23;20014;-93
2020/12/28 02:59:41;;;;;;;17.50;11.55;;;2.70;99.90;;;2.54;100.00;97543.31;6153531;23;20012;-93
2020/12/28 03:02:07;;;;;;;18.77;11.98;;;2.70;99.90;;;2.46;100.00;97540.97;6202214;23;20012;-92
2020/12/28 03:04:33;;;;;;;18.85;12.02;;;2.70;99.90;;;2.39;100.00;97548.28;6202822;23;20034;-92
2020/12/28 03:06:59;;;;;;;20.77;12.93;;;2.60;99.90;;;2.41;100.00;97544.34;6203468;23;20012;-91
2020/12/28 03:09:25;;;;;;;16.15;12.43;;;3.10;99.90;;;2.38;100.00;97550.16;6152941;23;20014;-91
2020/12/28 03:11:51;;;;;;;22.58;12.85;;;2.50;99.90;;;2.34;100.00;97540.13;6178367;23;20020;-91
2020/12/28 03:14:17;;;;;;;16.05;11.93;;;2.40;99.90;;;2.36;100.00;97541.53;6208827;23;20007;-92
2020/12/28 03:16:43;;;;;;;18.35;11.80;;;2.60;99.90;;;2.25;100.00;97553.06;6181137;23;20016;-91
2020/12/28 03:19:09;;;;;;;20.38;12.57;;;2.40;99.90;;;2.39;100.00;97551.78;6178657;23;20065;-92
2020/12/28 03:21:35;;;;;;;19.55;13.88;;;2.40;99.90;;;2.47;100.00;97554.16;6205196;23;20008;-93
2020/12/28 03:24:01;;;;;;;24.83;16.10;;;2.50;99.90;;;2.63;100.00;97552.66;6203787;23;20016;-93
2020/12/28 03:26:30;;;;;;;22.80;13.63;;;2.50;99.90;;;2.61;100.00;97556.63;6184849;23;20085;-90
2020/12/28 03:28:56;;;;;;;25.50;14.95;;;2.80;99.90;;;2.68;100.00;97551.97;6210833;23;20008;-92
2020/12/28 03:31:27;;;;;;;26.40;16.00;;;2.70;99.90;;;2.82;100.00;97556.88;6178786;23;20024;-92
2020/12/28 03:33:53;;;;;;;28.48;16.42;;;2.90;99.90;;;2.94;100.00;97556.91;6227443;23;20000;-92
2020/12/28 03:36:19;;;;;;;29.55;16.45;;;3.30;99.90;;;2.99;100.00;97565.09;6203536;23;20056;-92
2020/12/28 03:38:44;;;;;;;28.88;16.60;;;3.50;99.90;;;3.15;100.00;97569.78;6198571;23;20008;-87
2020/12/28 03:41:14;;;;;;;32.92;17.13;;;3.00;99.90;;;3.15;100.00;97569.78;6198559;23;20012;-88
2020/12/28 03:43:40;;;;;;;26.15;14.73;;;3.50;99.90;;;3.03;100.00;97571.66;6197394;23;20468;-88
2020/12/28 03:46:06;;;;;;;35.03;16.75;;;3.10;99.90;;;3.13;100.00;97571.88;6172332;23;20012;-88
2020/12/28 03:48:32;;;;;;;32.85;16.63;;;3.20;99.90;;;3.22;100.00;97573.16;6197789;23;20012;-88
2020/12/28 03:50:58;;;;;;;30.40;15.65;;;2.50;99.90;;;3.27;100.00;97581.31;6196954;23;20012;-88
2020/12/28 03:53:24;;;;;;;36.08;17.90;;;3.30;99.90;;;3.23;100.00;97585.53;6174500;23;20015;-87
2020/12/28 03:55:50;;;;;;;30.05;16.48;;;3.80;99.90;;;3.12;100.00;97578.31;6197244;23;20009;-88
2020/12/28 03:58:16;;;;;;;34.53;18.42;;;3.20;99.90;;;3.18;100.00;97574.66;6197143;23;20011;-88
2020/12/28 04:00:42;;;;;;;36.60;17.65;;;3.30;99.90;;;3.21;100.00;97592.19;6147135;23;20429;-88
2020/12/28 04:03:08;;;;;;;31.95;16.98;;;3.30;99.90;;;3.25;100.00;97594.19;6172806;23;20073;-88
2020/12/28 04:05:34;;;;;;;32.90;17.08;;;3.80;99.90;;;3.19;100.00;97597.81;6175844;23;20031;-92
2020/12/28 04:08:06;;;;;;;38.75;17.75;;;3.50;99.90;;;3.35;100.00;97595.47;6176152;23;20012;-93
2020/12/28 04:10:33;;;;;;;41.80;18.70;;;3.20;99.90;;;3.30;100.00;97604.22;6156009;23;20008;-92
2020/12/28 04:12:59;;;;;;;35.50;16.35;;;3.30;99.90;;;3.27;100.00;97602.03;6202348;23;20463;-92
2020/12/28 04:15:25;;;;;;;54.05;17.55;;;3.70;99.90;;;3.29;100.00;97603.41;6201478;23;20005;-92
2020/12/28 04:17:51;;;;;;;60.45;17.42;;;3.60;99.90;;;3.40;100.00;97600.94;6202072;23;20085;-92
2020/12/28 04:20:17;;;;;;;42.38;16.83;;;3.50;99.90;;;3.31;100.00;97594.31;6178378;23;20039;-92
2020/12/28 04:22:44;;;;;;;42.17;17.80;;;3.70;99.90;;;3.38;100.00;97593.16;6207339;23;20024;-92
2020/12/28 04:25:14;;;;;;;41.22;17.20;;;3.20;99.90;;;3.22;100.00;97594.66;6201898;23;20058;-92
2020/12/28 04:27:41;;;;;;;45.58;17.63;;;2.50;99.90;;;3.38;100.00;97598.53;6226066;23;20012;-93
2020/12/28 04:30:09;;;;;;;40.78;16.05;;;3.40;99.90;;;3.40;100.00;97593.72;6203576;23;20008;-92
2020/12/28 04:32:36;;;;;;;33.58;17.17;;;3.60;99.90;;;3.36;100.00;97597.13;6203322;23;20000;-92
2020/12/28 04:35:03;;;;;;;38.22;17.10;;;3.30;99.90;;;3.47;100.00;97596.28;6203312;23;20046;-92
2020/12/28 04:37:29;;;;;;;39.13;17.83;;;3.30;99.90;;;3.31;100.00;97597.00;6227951;23;20056;-92
2020/12/28 04:39:56;;;;;;;40.88;16.08;;;3.30;99.90;;;3.22;100.00;97600.03;6175508;23;20008;-89
2020/12/28 04:42:27;;;;;;;43.92;15.70;;;3.60;99.90;;;3.17;100.00;97597.22;6198829;23;20043;-88
2020/12/28 04:44:53;;;;;;;39.75;15.93;;;3.80;99.90;;;3.17;100.00;97597.22;6173579;23;20059;-90
2020/12/28 04:47:19;;;;;;;34.20;14.80;;;3.70;99.90;;;3.20;100.00;97596.75;6197410;23;20016;-89
2020/12/28 04:49:46;;;;;;;37.38;17.27;;;2.60;99.90;;;3.27;100.00;97607.41;6196815;23;20032;-89
2020/12/28 04:52:17;;;;;;;39.80;17.63;;;3.20;99.90;;;3.22;100.00;97613.47;6198133;23;20011;-89
2020/12/28 04:54:46;;;;;;;33.40;16.63;;;3.10;99.90;;;3.25;100.00;97602.25;6149961;23;20008;-88
2020/12/28 04:57:13;;;;;;;39.38;17.85;;;3.60;99.90;;;3.34;100.00;97607.28;6224703;23;20004;-89
2020/12/28 04:59:40;;;;;;;38.72;18.17;;;3.60;99.90;;;3.41;100.00;97602.59;6198969;23;20011;-88
2020/12/28 05:02:07;;;;;;;38.17;17.50;;;3.40;99.90;;;3.31;100.00;97591.63;6200630;23;20409;-89
2020/12/28 05:04:33;;;;;;;40.40;18.20;;;3.40;99.90;;;3.26;100.00;97590.47;6199959;23;20433;-89
2020/12/28 05:07:07;;;;;;;31.80;15.20;;;3.70;99.90;;;3.32;100.00;97582.50;6187295;23;20054;-88
2020/12/28 05:09:34;;;;;;;34.53;16.55;;;3.30;99.90;;;3.32;100.00;97587.88;6177450;23;20004;-89
2020/12/28 05:12:04;;;;;;;36.55;17.45;;;2.70;99.90;;;3.21;100.00;97582.28;6209986;23;20035;-90
2020/12/28 05:14:32;;;;;;;39.88;19.15;;;3.20;99.90;;;3.13;100.00;97590.69;6225712;23;20417;-88
2020/12/28 05:17:01;;;;;;;37.50;18.85;;;3.50;99.90;;;3.18;100.00;97598.03;6225479;23;20012;-89
2020/12/28 05:19:27;;;;;;;36.13;17.35;;;3.20;99.90;;;3.41;100.00;97602.59;6250128;23;20004;-89
2020/12/28 05:21:54;;;;;;;38.00;17.35;;;3.30;99.90;;;3.51;100.00;97609.00;6224381;23;20005;-89
2020/12/28 05:24:21;;;;;;;36.08;17.88;;;3.40;99.90;;;3.47;100.00;97601.66;6224161;23;20091;-88
2020/12/28 05:26:47;;;;;;;40.25;18.15;;;3.40;99.90;;;3.44;100.00;97597.56;6224056;23;20036;-88
2020/12/28 05:29:22;;;;;;;37.05;17.88;;;3.90;99.90;;;3.41;100.00;97591.84;6250137;23;20008;-89
2020/12/28 05:31:51;;;;;;;41.88;19.67;;;3.40;99.90;;;3.36;100.00;97599.81;6225260;23;20030;-88
2020/12/28 05:34:28;;;;;;;43.40;19.63;;;3.40;99.90;;;3.57;100.00;97596.50;6250491;22;20092;-89
2020/12/28 05:36:56;;;;;;;39.45;18.40;;;3.50;99.90;;;3.59;100.00;97597.09;6225872;23;20001;-89
2020/12/28 05:39:26;;;;;;;39.20;19.13;;;4.00;99.90;;;3.57;100.00;97591.97;6250388;22;20088;-89
2020/12/28 05:42:12;;;;;;;38.88;17.42;;;3.50;99.90;;;3.60;100.00;97604.13;6225900;23;20043;-88
2020/12/28 05:44:45;;;;;;;43.00;18.67;;;3.40;99.90;;;3.51;100.00;97602.81;6227757;23;20091;-89
2020/12/28 05:47:16;;;;;;;36.38;18.27;;;3.60;99.90;;;3.42;100.00;97588.09;6226069;23;20008;-89
2020/12/28 05:49:45;;;;;;;41.78;20.48;;;3.60;99.90;;;3.34;100.00;97593.84;6224989;23;20015;-89
2020/12/28 05:52:16;;;;;;;37.83;18.00;;;3.80;99.90;;;3.59;100.00;97589.03;6225673;23;20103;-87
2020/12/28 05:54:43;;;;;;;35.45;17.83;;;3.50;99.90;;;3.40;100.00;97598.25;6224318;23;20012;-89
2020/12/28 05:57:10;;;;;;;39.78;17.50;;;3.70;99.90;;;3.45;100.00;97595.69;6223627;23;20008;-88
2020/12/28 05:59:38;;;;;;;33.88;17.60;;;3.60;99.90;;;3.59;100.00;97594.41;6198775;23;20014;-87
2020/12/28 06:02:11;;;;;;;36.35;17.02;;;3.60;99.90;;;3.54;100.00;97605.03;6224697;23;20038;-88
2020/12/28 06:04:38;;;;;;;35.78;17.50;;;3.60;99.90;;;3.43;100.00;97597.81;6225459;23;20071;-89
2020/12/28 06:07:04;;;;;;;41.45;18.17;;;4.20;99.90;;;3.37;100.00;97596.06;6225447;23;20027;-88
2020/12/28 06:09:31;;;;;;;43.35;17.17;;;3.40;99.90;;;3.42;100.00;97593.47;6199655;23;20008;-88
2020/12/28 06:12:05;;;;;;;37.38;17.48;;;3.40;99.90;;;3.41;100.00;97584.59;6251092;22;20377;-89
2020/12/28 06:14:39;;;;;;;45.40;17.42;;;3.40;99.90;;;3.34;100.00;97588.47;6225450;23;20008;-88
2020/12/28 06:17:12;;;;;;;36.95;16.17;;;3.90;99.90;;;3.31;100.00;97594.31;6223958;23;20000;-88
2020/12/28 06:19:43;;;;;;;41.05;17.85;;;3.80;99.90;;;3.29;100.00;97595.34;6224606;23;20419;-87
2020/12/28 06:22:19;;;;;;;36.05;17.45;;;3.80;99.90;;;3.35;100.00;97593.59;6225667;23;20044;-89
2020/12/28 06:25:04;;;;;;;43.17;17.20;;;3.80;99.90;;;3.40;100.00;97593.72;6249715;23;20091;-89
2020/12/28 06:27:45;;;;;;;41.08;18.30;;;3.40;99.90;;;3.58;100.00;97596.28;6223227;23;20011;-89
2020/12/28 06:30:18;;;;;;;40.22;18.45;;;3.50;99.90;;;3.64;100.00;97586.44;6224086;23;20008;-89
2020/12/28 06:32:47;;;;;;;37.28;18.20;;;3.20;99.90;;;3.52;100.00;97593.69;6251220;22;20015;-88
2020/12/28 06:35:17;;;;;;;34.97;16.92;;;3.50;99.90;;;3.53;100.00;97595.34;6227204;23;20095;-90
2020/12/28 06:37:50;;;;;;;44.67;18.38;;;3.50;99.90;;;3.65;100.00;97598.84;6226515;23;20036;-88
2020/12/28 06:40:38;;;;;;;36.10;17.75;;;3.60;99.90;;;3.75;100.00;97592.84;6225163;23;20012;-88
2020/12/28 06:43:15;;;;;;;30.75;14.98;;;3.60;99.90;;;3.54;100.00;97592.41;6226207;23;20004;-88
2020/12/28 06:45:50;;;;;;;33.97;17.10;;;4.30;99.90;;;3.61;100.00;97603.06;6225372;23;20016;-88
2020/12/28 06:49:18;;;;;;;41.42;17.67;;;3.60;99.90;;;3.59;100.00;97607.84;6226217;23;20420;-89
2020/12/28 06:51:44;;;;;;;36.08;15.80;;;3.60;99.90;;;3.52;100.00;97604.47;6251021;23;20012;-89
2020/12/28 06:54:10;;;;;;;35.88;16.77;;;3.70;99.90;;;3.70;100.00;97607.03;6252467;23;20008;-88
2020/12/28 06:56:37;;;;;;;35.15;15.80;;;4.10;99.90;;;3.79;100.00;97605.59;6252811;22;20004;-89
2020/12/28 06:59:03;;;;;;;32.20;16.75;;;3.60;99.90;;;3.67;100.00;97614.75;6226263;23;20019;-89
2020/12/28 07:01:30;;;;;;;45.78;17.88;;;3.60;99.90;;;3.69;100.00;97613.44;6227413;23;20035;-88
2020/12/28 07:03:56;;;;;;;38.38;18.73;;;4.10;99.90;;;3.74;100.00;97629.69;6202794;23;20444;-90
2020/12/28 07:06:26;;;;;;;32.90;15.75;;;3.70;99.90;;;3.57;100.00;97628.78;6254441;22;20004;-89
2020/12/28 07:08:52;;;;;;;35.17;16.90;;;3.60;99.90;;;3.60;100.00;97631.00;6252741;23;20012;-90
2020/12/28 07:11:19;;;;;;;41.92;18.95;;;3.60;99.90;;;3.69;100.00;97632.28;6256871;23;20433;-89
2020/12/28 07:13:48;;;;;;;39.47;18.45;;;3.60;99.90;;;3.65;100.00;97636.47;6177226;23;20015;-89
2020/12/28 07:16:14;;;;;;;31.58;15.27;;;3.90;99.90;;;3.62;100.00;97635.06;6200698;23;20371;-89
2020/12/28 07:18:40;;;;;;;34.90;16.27;;;3.80;99.90;;;3.54;100.00;97643.50;6201498;23;20007;-91
2020/12/28 07:21:07;;;;;;;33.97;17.20;;;3.60;99.90;;;3.67;100.00;97634.38;6154689;23;20020;-88
2020/12/28 07:23:34;;;;;;;33.33;17.25;;;3.60;99.90;;;3.65;100.00;97631.09;6201337;23;20010;-88
2020/12/28 07:26:11;;;;;;;40.72;18.88;;;4.00;99.90;;;3.56;100.00;97638.72;6199632;23;20010;-88
2020/12/28 07:28:57;;;;;;;36.10;17.58;;;4.00;99.90;;;3.55;100.00;97642.47;6233027;23;20039;-91
2020/12/28 07:31:24;;;;;;;34.17;17.38;;;4.20;99.90;;;3.69;100.00;97648.41;6266978;23;19996;-91
2020/12/28 07:33:51;;;;;;;34.15;17.42;;;4.10;99.90;;;3.75;100.00;97655.53;6216250;23;20012;-92
2020/12/28 07:36:20;;;;;;;35.35;18.23;;;3.80;99.90;;;3.55;100.00;97663.97;6238989;23;20058;-92
2020/12/28 07:38:49;;;;;;;30.65;15.15;;;3.70;99.90;;;3.41;100.00;97662.56;6185740;23;20008;-91
2020/12/28 07:41:18;;;;;;;29.02;16.65;;;3.60;99.90;;;3.54;100.00;97666.88;6212944;23;20032;-92
2020/12/28 07:43:48;;;;;;;25.40;14.93;;;3.60;99.90;;;3.40;100.00;97668.16;6242113;23;20011;-90
2020/12/28 07:47:04;;;;;;;24.52;13.45;;;3.50;99.90;;;3.42;100.00;97664.19;6217547;23;20057;-91
2020/12/28 07:49:41;;;;;;;24.45;14.48;;;3.50;99.90;;;3.45;100.00;97679.03;6246082;23;20007;-91
2020/12/28 07:52:20;;;;;;;22.83;12.02;;;3.70;99.90;;;3.43;100.00;97673.06;6219557;23;20055;-91
2020/12/28 07:55:27;;;;;;;23.63;12.77;;;3.50;99.90;;;3.64;100.00;97672.50;6215743;23;20004;-93
2020/12/28 07:58:18;;;;;;;22.05;12.95;;;3.40;99.90;;;3.58;100.00;97668.06;6244293;23;20008;-90
2020/12/28 08:00:56;;;;;;;20.65;12.52;;;4.60;99.90;;;3.44;100.00;97667.47;6236777;23;20007;-90
2020/12/28 08:03:49;;;;;;;20.35;11.63;;;3.60;99.90;;;3.31;100.00;97672.25;6213605;23;20008;-92
2020/12/28 08:06:18;;;;;;;20.83;11.60;;;3.50;99.90;;;3.37;100.00;97665.97;6238813;23;20004;-92
2020/12/28 08:08:45;;;;;;;21.83;11.38;;;3.40;99.90;;;3.25;100.00;97674.00;6192628;23;20012;-92
2020/12/28 08:11:11;;;;;;;22.88;11.40;;;3.40;99.90;;;3.33;100.00;97664.78;6236736;23;20004;-92
2020/12/28 08:13:37;;;;;;;16.25;11.55;;;3.40;99.90;;;3.44;100.00;97672.03;6204120;22;20027;-93
2020/12/28 08:16:16;;;;;;;21.98;12.02;;;3.40;99.90;;;3.32;100.00;97671.19;6240963;22;20079;-91
2020/12/28 08:18:53;;;;;;;25.23;11.27;;;3.40;99.90;;;3.20;100.00;97669.31;6244591;22;20023;-92
2020/12/28 08:21:21;;;;;;;23.25;11.15;;;3.30;99.90;;;3.21;100.00;97665.56;6270476;22;19999;-91
2020/12/28 08:23:57;;;;;;;20.95;12.23;;;2.50;99.90;;;3.40;100.00;97673.53;6270961;22;20011;-93
2020/12/28 08:26:28;;;;;;;23.85;11.98;;;3.60;99.90;;;3.38;100.00;97670.28;6266219;22;20001;-93
2020/12/28 08:29:02;;;;;;;16.55;10.95;;;3.00;99.90;;;3.54;100.00;97666.88;6264448;22;20016;-92
2020/12/28 08:31:34;;;;;;;21.42;10.38;;;3.10;99.90;;;3.46;100.00;97675.31;6233449;23;20009;-89
2020/12/28 08:34:13;;;;;;;22.58;12.48;;;4.00;99.90;;;3.81;100.00;97678.81;6229637;23;20012;-89
2020/12/28 08:37:10;;;;;;;20.45;10.05;;;3.60;99.90;;;3.81;100.00;97676.13;6229387;23;20069;-90
2020/12/28 08:39:41;;;;;;;18.88;10.23;;;3.70;99.90;;;3.67;100.00;97674.72;6233720;23;20015;-88
2020/12/28 08:42:08;;;;;;;15.63;9.88;;;3.70;99.90;;;3.76;100.00;97681.38;6233559;23;20066;-91
2020/12/28 08:44:41;;;;;;;23.90;10.50;;;3.80;99.90;;;3.83;100.00;97675.91;6209922;22;19996;-92
2020/12/28 08:47:14;;;;;;;19.63;10.75;;;3.40;99.90;;;3.83;100.00;97684.78;6263813;23;20012;-92
2020/12/28 08:49:48;;;;;;;15.18;9.88;;;4.50;99.90;;;3.87;100.00;97694.00;6237255;23;20008;-91
2020/12/28 08:52:20;;;;;;;20.23;10.60;;;3.80;99.90;;;3.97;100.00;97688.84;6238367;23;20050;-91
2020/12/28 08:55:00;;;;;;;18.73;10.73;;;3.90;99.90;;;3.83;100.00;97682.09;6241296;23;20016;-93
2020/12/28 08:57:30;;;;;;;14.30;9.00;;;3.90;99.90;;;4.00;100.00;97682.19;6236040;23;20447;-90
2020/12/28 08:59:59;;;;;;;16.58;8.65;;;4.00;99.90;;;4.17;100.00;97676.91;6230386;23;20049;-90
2020/12/28 09:02:32;;;;;;;14.75;9.35;;;4.10;99.90;;;4.28;100.00;97673.38;6228012;23;20008;-90
2020/12/28 09:05:11;;;;;;;;;;;;;;;;;;;;;
2020/12/28 09:07:39;;;;;;;15.20;9.10;;;4.10;99.90;;;4.18;100.00;97678.50;6247791;23;20039;-90
2020/12/28 09:10:08;;;;;;;16.75;9.85;;;4.10;99.90;;;4.32;100.00;97674.50;6231735;23;20004;-93
2020/12/28 09:12:37;;;;;;;19.17;10.02;;;4.20;99.90;;;4.38;100.00;97673.56;6238782;23;20008;-92
2020/12/28 09:15:06;;;;;;;18.70;8.50;;;4.20;99.90;;;4.39;100.00;97680.59;6238860;23;20012;-92
2020/12/28 09:17:38;;;;;;;18.83;10.23;;;4.30;99.90;;;4.53;100.00;97681.09;6237942;23;20020;-93
2020/12/28 09:20:13;;;;;;;14.80;8.65;;;4.30;99.90;;;4.60;100.00;97684.50;6239211;23;20012;-93
2020/12/28 09:22:40;;;;;;;15.70;8.90;;;4.90;99.90;;;4.71;100.00;97679.06;6241787;23;20015;-95
2020/12/28 09:25:12;;;;;;;16.95;9.75;;;4.50;99.90;;;4.81;100.00;97677.59;6239197;23;20039;-93
2020/12/28 09:28:03;;;;;;;12.40;8.38;;;4.60;99.90;;;4.78;100.00;97688.88;6242235;23;20016;-91
2020/12/28 09:30:30;;;;;;;19.60;8.55;;;4.80;99.90;;;4.86;99.97;97691.16;6239882;23;20061;-92
2020/12/28 09:32:56;;;;;;;17.40;8.32;;;4.70;99.90;;;4.84;100.00;97683.34;6214496;23;20068;-93
2020/12/28 09:35:42;;;;;;;12.70;7.65;;;4.90;99.90;;;4.84;100.00;97688.72;6239463;23;20027;-94
2020/12/28 09:38:09;;;;;;;17.08;7.72;;;5.10;99.90;;;4.84;100.00;97690.59;6239063;23;20004;-94
2020/12/28 09:40:37;;;;;;;13.13;7.05;;;5.20;99.90;;;4.98;99.81;97695.44;6238643;23;20008;-93
2020/12/28 09:43:06;;;;;;;15.57;7.38;;;4.80;99.90;;;5.04;99.09;97694.50;6210118;22;20012;-89
2020/12/28 09:45:36;;;;;;;13.15;7.22;;;5.00;99.90;;;5.17;98.87;97687.97;6206541;23;20019;-88
2020/12/28 09:48:04;;;;;;;17.17;6.80;;;5.30;99.90;;;5.28;98.91;97695.16;6233377;23;20012;-89
2020/12/28 09:50:34;;;;;;;16.45;7.25;;;5.50;99.90;;;5.36;98.92;97693.94;6232237;23;20012;-89
2020/12/28 09:56:44;;;;;;;10.60;5.78;;;5.20;99.90;;;5.25;98.55;97701.03;6264687;23;20040;-90
2020/12/28 09:59:13;;;;;;;10.25;5.78;;;5.20;99.90;;;5.43;98.13;97698.09;6236712;23;20067;-89
2020/12/28 10:01:49;;;;;;;8.90;6.45;;;5.20;99.90;;;5.54;98.02;97699.09;6234138;23;20000;-88
2020/12/28 10:04:18;;;;;;;9.07;6.05;;;5.30;99.90;;;5.60;97.12;97700.00;6235901;23;20000;-89
2020/12/28 10:06:44;;;;;;;10.20;5.85;;;5.20;99.90;;;5.65;97.25;97694.66;6232974;23;20004;-90
2020/12/28 10:09:13;;;;;;;8.82;5.07;;;5.60;99.90;;;5.55;97.17;97699.91;6217265;23;20004;-93
2020/12/28 10:11:42;;;;;;;11.82;5.18;;;5.50;99.90;;;5.66;96.86;97702.50;6241083;23;20004;-93
2020/12/28 10:14:32;;;;;;;10.23;5.07;;;5.50;99.90;;;5.56;96.39;97696.16;6210604;23;20017;-92
2020/12/28 10:17:12;;;;;;;9.40;4.28;;;5.40;99.90;;;5.62;96.54;97700.56;6218947;23;20020;-94
2020/12/28 10:19:39;;;;;;;11.27;5.35;;;5.60;99.90;;;5.79;95.50;97706.75;6193813;23;20105;-91
2020/12/28 10:22:11;;;;;;;10.90;4.63;;;5.80;99.90;;;5.61;95.67;97707.03;6240339;23;20031;-92
2020/12/28 10:24:43;;;;;;;7.22;4.18;;;5.50;99.90;;;5.71;95.56;97709.88;6217545;23;19996;-94
2020/12/28 10:27:10;;;;;;;6.32;4.63;;;5.50;99.90;;;5.55;95.76;97713.38;6240250;23;20116;-93
2020/12/28 10:29:36;;;;;;;13.52;5.20;;;5.80;99.90;;;5.65;95.67;97706.28;6239804;22;20008;-91